createdAt,value
2022-11-01T00:27:54.597Z,11.10
2022-11-01T00:30:21.411Z,10.35
2022-11-01T00:32:48.272Z,11.60
2022-11-01T00:35:15.110Z,9.30
2022-11-01T00:37:41.934Z,11.05
2022-11-01T00:40:09.279Z,11.27
2022-11-01T00:42:36.121Z,10.57
2022-11-01T00:45:02.962Z,10.63
2022-11-01T00:47:29.758Z,10.65
2022-11-01T00:49:56.607Z,9.80
2022-11-01T00:52:23.468Z,10.30
2022-11-01T00:54:50.303Z,10.63
2022-11-01T00:57:17.108Z,10.35
2022-11-01T00:59:43.943Z,8.73
2022-11-01T01:02:10.892Z,9.98
2022-11-01T01:04:42.271Z,9.30
2022-11-01T01:07:10.287Z,10.88
2022-11-01T01:09:37.491Z,9.63
2022-11-01T01:12:05.111Z,9.55
2022-11-01T01:14:32.687Z,8.27
2022-11-01T01:16:59.738Z,8.93
2022-11-01T01:19:26.562Z,8.13
2022-11-01T01:21:53.370Z,9.50
2022-11-01T01:24:20.177Z,7.97
2022-11-01T01:26:47.060Z,8.43
2022-11-01T01:29:13.862Z,7.97
2022-11-01T01:31:40.663Z,7.70
2022-11-01T01:34:07.513Z,7.60
2022-11-01T01:36:34.415Z,7.45
2022-11-01T01:39:01.217Z,6.45
2022-11-01T01:41:46.659Z,6.57
2022-11-01T01:44:50.831Z,7.50
2022-11-01T01:47:22.856Z,7.13
2022-11-01T01:52:25.498Z,6.97
2022-11-01T01:54:52.323Z,6.25
2022-11-01T01:57:20.306Z,5.80
2022-11-01T01:59:47.479Z,5.97
2022-11-01T02:02:14.985Z,5.68
2022-11-01T02:04:45.993Z,6.03
2022-11-01T02:07:12.960Z,5.90
2022-11-01T02:09:40.556Z,6.03
2022-11-01T02:12:08.541Z,6.00
2022-11-01T02:14:35.532Z,7.43
2022-11-01T02:17:08.874Z,6.18
2022-11-01T02:19:42.294Z,5.57
2022-11-01T02:22:22.610Z,5.00
2022-11-01T02:25:26.482Z,5.78
2022-11-01T02:28:02.174Z,5.68
2022-11-01T02:30:53.150Z,5.05
2022-11-01T02:33:30.202Z,5.38
2022-11-01T02:36:02.050Z,5.03
2022-11-01T02:39:02.651Z,4.68
2022-11-01T02:41:44.867Z,4.55
2022-11-01T02:44:17.062Z,5.35
2022-11-01T02:47:01.372Z,4.53
2022-11-01T02:49:34.476Z,4.50
2022-11-01T02:52:03.767Z,5.00
2022-11-01T02:54:40.081Z,4.60
2022-11-01T02:57:33.763Z,4.85
2022-11-01T03:00:05.123Z,4.33
2022-11-01T03:02:41.877Z,4.00
2022-11-01T03:05:19.605Z,4.60
2022-11-01T03:07:53.007Z,4.43
2022-11-01T03:10:21.988Z,4.53
2022-11-01T03:12:57.612Z,4.75
2022-11-01T03:15:30.731Z,4.30
2022-11-01T03:18:05.152Z,4.45
2022-11-01T03:20:48.683Z,4.95
2022-11-01T03:23:26.213Z,5.35
2022-11-01T03:25:56.114Z,6.00
2022-11-01T03:28:40.336Z,5.43
2022-11-01T03:31:13.860Z,5.15
2022-11-01T03:33:45.645Z,5.93
2022-11-01T03:36:18.166Z,5.30
2022-11-01T03:39:01.354Z,5.40
2022-11-01T03:41:35.031Z,5.93
2022-11-01T03:44:02.898Z,4.72
2022-11-01T03:46:29.854Z,5.20
2022-11-01T03:48:57.210Z,5.67
2022-11-01T03:51:23.992Z,4.65
2022-11-01T03:53:50.804Z,5.10
2022-11-01T03:56:17.647Z,4.70
2022-11-01T03:58:46.036Z,5.68
2022-11-01T04:01:15.261Z,5.03
2022-11-01T04:03:42.670Z,4.95
2022-11-01T04:06:10.077Z,4.85
2022-11-01T04:08:37.295Z,5.72
2022-11-01T04:11:04.580Z,4.78
2022-11-01T04:13:31.925Z,4.93
2022-11-01T04:16:17.616Z,4.47
2022-11-01T04:19:03.133Z,4.43
2022-11-01T04:21:32.181Z,4.80
2022-11-01T04:23:59.088Z,4.82
2022-11-01T04:26:26.256Z,5.13
2022-11-01T04:28:59.139Z,5.05
2022-11-01T04:31:44.182Z,5.57
2022-11-01T04:34:11.007Z,4.88
2022-11-01T04:36:38.525Z,5.22
2022-11-01T04:39:05.337Z,4.65
2022-11-01T04:41:32.164Z,4.50
2022-11-01T04:43:59.733Z,5.10
2022-11-01T04:46:29.758Z,4.97
2022-11-01T04:48:56.679Z,5.05
2022-11-01T04:51:23.616Z,5.15
2022-11-01T04:53:50.430Z,4.95
2022-11-01T04:56:17.351Z,4.97
2022-11-01T04:58:46.454Z,5.47
2022-11-01T05:01:15.028Z,5.07
2022-11-01T05:03:42.751Z,5.30
2022-11-01T05:06:10.055Z,5.63
2022-11-01T05:08:36.930Z,5.60
2022-11-01T05:11:03.882Z,5.28
2022-11-01T05:13:30.695Z,5.55
2022-11-01T05:18:44.441Z,4.80
2022-11-01T05:21:11.978Z,5.38
2022-11-01T05:23:38.993Z,5.38
2022-11-01T05:26:06.119Z,5.88
2022-11-01T05:28:33.034Z,4.82
2022-11-01T05:30:59.911Z,5.30
2022-11-01T05:33:26.733Z,4.72
2022-11-01T05:35:53.579Z,5.80
2022-11-01T05:38:20.471Z,5.20
2022-11-01T05:40:47.463Z,5.35
2022-11-01T05:43:14.670Z,5.68
2022-11-01T05:45:41.593Z,5.10
2022-11-01T05:48:08.517Z,4.95
2022-11-01T05:50:35.325Z,5.32
2022-11-01T05:53:07.001Z,4.75
2022-11-01T05:55:34.192Z,4.60
2022-11-01T05:58:01.074Z,4.85
2022-11-01T06:00:27.860Z,4.90
2022-11-01T06:02:56.924Z,4.82
2022-11-01T06:05:23.724Z,5.00
2022-11-01T06:07:50.566Z,5.90
2022-11-01T06:10:17.431Z,4.82
2022-11-01T06:12:44.267Z,4.72
2022-11-01T06:15:11.549Z,4.65
2022-11-01T06:17:38.367Z,5.20
2022-11-01T06:20:05.802Z,4.38
2022-11-01T06:22:35.949Z,4.65
2022-11-01T06:25:03.030Z,4.00
2022-11-01T06:27:29.915Z,4.05
2022-11-01T06:29:56.717Z,4.03
2022-11-01T06:32:23.916Z,4.10
2022-11-01T06:34:50.718Z,4.93
2022-11-01T06:37:17.531Z,4.97
2022-11-01T06:39:44.375Z,4.70
2022-11-01T06:42:11.288Z,5.40
2022-11-01T06:44:38.104Z,5.35
2022-11-01T06:47:05.010Z,4.80
2022-11-01T06:49:31.857Z,4.80
2022-11-01T06:51:58.670Z,4.57
2022-11-01T06:54:25.844Z,4.85
2022-11-01T06:56:52.763Z,4.75
2022-11-01T06:59:19.811Z,3.85
2022-11-01T07:01:46.726Z,4.22
2022-11-01T07:04:13.676Z,4.20
2022-11-01T07:06:40.611Z,5.13
2022-11-01T07:09:07.436Z,4.70
2022-11-01T07:11:34.225Z,4.20
2022-11-01T07:14:01.041Z,3.50
2022-11-01T07:16:28.324Z,4.10
2022-11-01T07:18:55.401Z,3.97
2022-11-01T07:21:22.849Z,4.10
2022-11-01T07:23:49.870Z,4.23
2022-11-01T07:26:16.905Z,4.03
2022-11-01T07:28:43.900Z,3.77
2022-11-01T07:31:10.739Z,4.80
2022-11-01T07:33:38.041Z,3.47
2022-11-01T07:36:05.577Z,3.93
2022-11-01T07:38:32.568Z,3.70
2022-11-01T07:40:59.539Z,4.03
2022-11-01T07:43:26.432Z,4.37
2022-11-01T07:45:53.648Z,3.90
2022-11-01T07:48:20.736Z,3.77
2022-11-01T07:50:47.593Z,3.30
2022-11-01T07:53:17.380Z,3.43
2022-11-01T07:55:45.375Z,3.73
2022-11-01T07:58:13.119Z,3.80
2022-11-01T08:00:40.559Z,3.80
2022-11-01T08:03:10.428Z,3.13
2022-11-01T08:05:37.770Z,4.40
2022-11-01T08:08:06.107Z,3.20
2022-11-01T08:10:34.763Z,3.60
2022-11-01T08:13:03.813Z,3.40
2022-11-01T08:15:31.134Z,4.00
2022-11-01T08:17:58.974Z,4.10
2022-11-01T08:20:27.499Z,3.83
2022-11-01T08:22:54.816Z,4.23
2022-11-01T08:25:21.867Z,4.80
2022-11-01T08:27:48.904Z,4.10
2022-11-01T08:30:17.654Z,4.27
2022-11-01T08:32:45.364Z,3.90
2022-11-01T08:35:12.627Z,4.53
2022-11-01T08:37:49.115Z,4.30
2022-11-01T08:40:16.132Z,4.60
2022-11-01T08:42:42.956Z,3.87
2022-11-01T08:45:10.395Z,4.83
2022-11-01T08:47:37.547Z,4.53
2022-11-01T08:50:08.731Z,4.50
2022-11-01T08:52:38.229Z,4.27
2022-11-01T08:55:05.693Z,5.03
2022-11-01T08:57:32.607Z,4.77
2022-11-01T08:59:59.578Z,4.83
2022-11-01T09:02:26.572Z,4.70
2022-11-01T09:04:53.602Z,4.97
2022-11-01T09:07:20.527Z,5.20
2022-11-01T09:09:47.386Z,5.20
2022-11-01T09:12:14.898Z,5.00
2022-11-01T09:14:42.086Z,5.13
2022-11-01T09:17:08.992Z,4.73
2022-11-01T09:19:36.104Z,5.37
2022-11-01T09:22:03.104Z,6.33
2022-11-01T09:24:29.986Z,5.10
2022-11-01T09:26:56.828Z,4.30
2022-11-01T09:29:23.799Z,5.30
2022-11-01T09:31:52.767Z,4.90
2022-11-01T09:34:20.516Z,5.20
2022-11-01T09:36:48.982Z,4.80
2022-11-01T09:39:17.933Z,5.17
2022-11-01T09:42:07.951Z,4.67
2022-11-01T09:44:42.221Z,4.63
2022-11-01T09:47:20.293Z,5.40
2022-11-01T09:49:51.642Z,4.70
2022-11-01T09:52:22.887Z,4.40
2022-11-01T09:54:50.340Z,4.10
2022-11-01T09:57:23.285Z,4.43
2022-11-01T10:00:20.156Z,4.40
2022-11-01T10:03:20.290Z,4.37
2022-11-01T10:05:51.390Z,4.90
2022-11-01T10:08:24.253Z,4.10
2022-11-01T10:11:15.259Z,4.83
2022-11-01T10:13:58.726Z,4.30
2022-11-01T10:16:37.090Z,4.10
2022-11-01T10:19:21.791Z,3.87
2022-11-01T10:21:51.311Z,4.20
2022-11-01T10:24:30.261Z,3.70
2022-11-01T10:27:22.141Z,3.53
2022-11-01T10:29:51.994Z,4.23
2022-11-01T10:32:39.048Z,3.60
2022-11-01T10:35:22.665Z,3.60
2022-11-01T10:38:35.146Z,3.80
2022-11-01T10:41:10.153Z,3.57
2022-11-01T10:43:51.611Z,3.27
2022-11-01T10:46:22.710Z,3.43
2022-11-01T10:48:55.122Z,3.40
2022-11-01T10:51:27.820Z,3.63
2022-11-01T10:54:00.158Z,3.43
2022-11-01T10:56:41.822Z,3.03
2022-11-01T10:59:42.293Z,3.00
2022-11-01T11:02:35.862Z,3.23
2022-11-01T11:05:02.840Z,2.77
2022-11-01T11:07:31.918Z,3.20
2022-11-01T11:12:34.749Z,2.53
2022-11-01T11:15:16.890Z,2.90
2022-11-01T11:17:46.730Z,2.50
2022-11-01T11:20:16.431Z,2.57
2022-11-01T11:22:43.576Z,2.30
2022-11-01T11:25:20.668Z,2.23
2022-11-01T11:27:52.958Z,2.37
2022-11-01T11:30:35.172Z,2.40
2022-11-01T11:33:03.226Z,2.60
2022-11-01T11:35:32.840Z,2.60
2022-11-01T11:38:06.257Z,3.10
2022-11-01T11:40:39.595Z,3.00
2022-11-01T11:43:34.107Z,2.37
2022-11-01T11:46:15.197Z,2.50
2022-11-01T11:49:01.353Z,2.20
2022-11-01T11:51:35.551Z,2.40
2022-11-01T11:54:20.974Z,2.27
2022-11-01T11:57:07.136Z,1.97
2022-11-01T11:59:34.842Z,1.90
2022-11-01T12:02:15.029Z,2.70
2022-11-01T12:04:49.386Z,2.10
2022-11-01T12:07:33.034Z,1.93
2022-11-01T12:10:02.530Z,2.00
2022-11-01T12:12:35.372Z,1.90
2022-11-01T12:15:05.501Z,1.90
2022-11-01T12:17:44.703Z,2.03
2022-11-01T12:20:24.068Z,2.00
2022-11-01T12:23:21.844Z,2.10
2022-11-01T12:25:50.979Z,1.57
2022-11-01T12:28:28.408Z,1.67
2022-11-01T12:31:00.328Z,1.73
2022-11-01T12:33:41.177Z,1.67
2022-11-01T12:36:09.012Z,1.90
2022-11-01T12:38:52.856Z,1.47
2022-11-01T12:41:34.782Z,1.63
2022-11-01T12:44:10.926Z,1.90
2022-11-01T12:46:57.799Z,2.10
2022-11-01T12:49:36.550Z,2.00
2022-11-01T12:52:12.398Z,1.97
2022-11-01T12:54:47.248Z,2.30
2022-11-01T12:57:17.358Z,2.00
2022-11-01T12:59:46.550Z,2.30
2022-11-01T13:02:25.543Z,2.90
2022-11-01T13:05:02.048Z,2.20
2022-11-01T13:07:32.583Z,2.33
2022-11-01T13:10:34.209Z,2.30
2022-11-01T13:13:04.121Z,2.83
2022-11-01T13:15:37.386Z,2.20
2022-11-01T13:18:15.901Z,2.23
2022-11-01T13:21:25.627Z,2.57
2022-11-01T13:24:05.995Z,2.20
2022-11-01T13:26:45.554Z,2.73
2022-11-01T13:29:22.320Z,2.50
2022-11-01T13:32:13.644Z,2.60
2022-11-01T13:35:01.618Z,2.57
2022-11-01T13:37:36.668Z,2.50
2022-11-01T13:40:26.770Z,2.63
2022-11-01T13:43:05.523Z,2.60
2022-11-01T13:46:01.997Z,2.73
2022-11-01T13:48:37.739Z,2.67
2022-11-01T13:51:49.437Z,2.30
2022-11-01T13:54:28.540Z,2.90
2022-11-01T13:56:58.126Z,2.47
2022-11-01T13:59:55.198Z,2.40
2022-11-01T14:02:28.230Z,2.50
2022-11-01T14:05:02.321Z,2.67
2022-11-01T14:07:37.072Z,2.20
2022-11-01T14:10:19.930Z,2.30
2022-11-01T14:12:57.084Z,2.30
2022-11-01T14:15:28.723Z,2.70
2022-11-01T14:18:04.551Z,2.20
2022-11-01T14:20:31.669Z,2.00
2022-11-01T14:23:00.135Z,2.60
2022-11-01T14:25:30.280Z,2.00
2022-11-01T14:28:18.947Z,2.53
2022-11-01T14:30:49.535Z,2.40
2022-11-01T14:33:21.033Z,2.07
2022-11-01T14:35:54.482Z,2.47
2022-11-01T14:38:38.771Z,3.03
2022-11-01T14:41:07.066Z,2.23
2022-11-01T14:43:41.314Z,2.27
2022-11-01T14:46:24.332Z,2.43
2022-11-01T14:49:05.349Z,2.13
2022-11-01T14:51:39.050Z,2.47
2022-11-01T14:54:24.509Z,2.63
2022-11-01T14:56:54.284Z,2.00
2022-11-01T14:59:26.972Z,2.53
2022-11-01T15:02:02.348Z,2.60
2022-11-01T15:04:32.538Z,2.23
2022-11-01T15:07:00.788Z,1.77
2022-11-01T15:09:30.710Z,2.10
2022-11-01T15:12:09.850Z,2.40
2022-11-01T15:14:44.126Z,2.20
2022-11-01T15:17:26.151Z,2.20
2022-11-01T15:19:54.459Z,1.80
2022-11-01T15:22:25.904Z,2.70
2022-11-01T15:25:20.262Z,2.60
2022-11-01T15:27:48.039Z,2.77
2022-11-01T15:30:32.702Z,2.50
2022-11-01T15:33:27.978Z,2.20
2022-11-01T15:36:00.137Z,2.20
2022-11-01T15:38:28.281Z,2.50
2022-11-01T15:40:55.282Z,2.10
2022-11-01T15:43:24.913Z,2.87
2022-11-01T15:45:58.610Z,2.67
2022-11-01T15:48:29.408Z,2.93
2022-11-01T15:51:05.239Z,2.77
2022-11-01T15:53:35.600Z,1.80
2022-11-01T15:56:18.193Z,2.67
2022-11-01T15:59:01.209Z,2.73
2022-11-01T16:01:28.274Z,2.30
2022-11-01T16:03:58.511Z,2.80
2022-11-01T16:06:33.815Z,2.70
2022-11-01T16:09:08.114Z,2.37
2022-11-01T16:11:35.673Z,2.53
2022-11-01T16:14:07.479Z,2.40
2022-11-01T16:17:22.990Z,2.80
2022-11-01T16:19:51.691Z,2.40
2022-11-01T16:22:30.132Z,2.60
2022-11-01T16:25:13.912Z,2.80
2022-11-01T16:28:02.249Z,2.77
2022-11-01T16:30:42.284Z,2.70
2022-11-01T16:33:19.979Z,2.70
2022-11-01T16:35:49.072Z,2.93
2022-11-01T16:38:32.557Z,3.00
2022-11-01T16:41:14.947Z,3.03
2022-11-01T16:43:42.484Z,3.30
2022-11-01T16:46:09.777Z,3.70
2022-11-01T16:48:59.115Z,3.00
2022-11-01T16:51:28.770Z,3.47
2022-11-01T16:53:57.586Z,4.00
2022-11-01T16:56:40.863Z,3.73
2022-11-01T16:59:30.939Z,3.50
2022-11-01T17:01:58.807Z,3.30
2022-11-01T17:04:27.463Z,4.23
2022-11-01T17:06:57.922Z,3.20
2022-11-01T17:09:25.087Z,3.17
2022-11-01T17:11:53.894Z,4.00
2022-11-01T17:14:22.268Z,3.17
2022-11-01T17:16:51.447Z,3.97
2022-11-01T17:19:31.259Z,3.60
2022-11-01T17:22:05.500Z,4.20
2022-11-01T17:24:33.459Z,3.47
2022-11-01T17:27:05.318Z,3.77
2022-11-01T17:29:32.462Z,3.63
2022-11-01T17:32:00.967Z,3.33
2022-11-01T17:34:29.005Z,4.00
2022-11-01T17:36:57.551Z,3.30
2022-11-01T17:39:28.462Z,3.90
2022-11-01T17:41:56.196Z,3.83
2022-11-01T17:44:23.242Z,4.00
2022-11-01T17:46:50.098Z,4.00
2022-11-01T17:49:18.460Z,3.70
2022-11-01T17:51:45.293Z,3.70
2022-11-01T17:54:12.209Z,4.00
2022-11-01T17:56:39.210Z,5.10
2022-11-01T17:59:06.243Z,3.97
2022-11-01T18:01:33.272Z,4.33
2022-11-01T18:04:00.263Z,4.77
2022-11-01T18:06:27.125Z,4.40
2022-11-01T18:08:54.186Z,4.60
2022-11-01T18:11:46.067Z,4.67
2022-11-01T18:14:15.323Z,4.27
2022-11-01T18:16:49.310Z,5.00
2022-11-01T18:19:37.870Z,7.87
2022-11-01T18:22:45.257Z,5.57
2022-11-01T18:25:29.666Z,5.30
2022-11-01T18:28:00.470Z,5.50
2022-11-01T18:30:27.984Z,4.80
2022-11-01T18:33:12.269Z,6.00
2022-11-01T18:35:54.217Z,5.30
2022-11-01T18:38:43.672Z,5.53
2022-11-01T18:41:13.554Z,4.87
2022-11-01T18:43:40.611Z,5.70
2022-11-01T18:46:26.189Z,5.60
2022-11-01T18:49:09.884Z,5.93
2022-11-01T18:51:38.405Z,4.97
2022-11-01T18:54:17.325Z,5.87
2022-11-01T18:56:50.388Z,5.23
2022-11-01T18:59:32.132Z,6.80
2022-11-01T19:02:22.509Z,6.10
2022-11-01T19:04:59.259Z,6.00
2022-11-01T19:07:44.501Z,5.97
2022-11-01T19:10:19.818Z,5.60
2022-11-01T19:12:54.702Z,6.40
2022-11-01T19:15:25.632Z,5.33
2022-11-01T19:18:03.477Z,5.40
2022-11-01T19:20:31.955Z,5.10
2022-11-01T19:23:01.253Z,5.50
2022-11-01T19:25:33.393Z,5.20
2022-11-01T19:28:04.560Z,5.40
2022-11-01T19:30:33.194Z,4.97
2022-11-01T19:33:22.115Z,4.60
2022-11-01T19:35:53.750Z,5.67
2022-11-01T19:38:21.009Z,5.40
2022-11-01T19:40:51.791Z,4.80
2022-11-01T19:43:24.066Z,5.17
2022-11-01T19:45:52.771Z,5.10
2022-11-01T19:48:30.679Z,5.80
2022-11-01T19:50:57.795Z,7.00
2022-11-01T19:53:33.527Z,6.63
2022-11-01T19:56:09.971Z,8.20
2022-11-01T19:58:46.726Z,7.00
2022-11-01T20:01:21.421Z,7.80
2022-11-01T20:04:12.374Z,5.43
2022-11-01T20:06:48.644Z,5.70
2022-11-01T20:09:25.125Z,5.60
2022-11-01T20:11:52.853Z,5.20
2022-11-01T20:14:20.343Z,5.90
2022-11-01T20:16:47.392Z,5.80
2022-11-01T20:19:17.420Z,5.30
2022-11-01T20:21:45.405Z,5.20
2022-11-01T20:24:12.696Z,5.50
2022-11-01T20:26:39.574Z,5.37
2022-11-01T20:29:06.410Z,5.50
2022-11-01T20:31:33.282Z,5.33
2022-11-01T20:34:00.195Z,5.40
2022-11-01T20:36:28.247Z,5.33
2022-11-01T20:38:55.259Z,5.57
2022-11-01T20:41:22.498Z,4.93
2022-11-01T20:43:49.706Z,5.90
2022-11-01T20:46:16.912Z,5.13
2022-11-01T20:48:45.299Z,5.60
2022-11-01T20:51:13.342Z,5.10
2022-11-01T20:53:41.228Z,4.93
2022-11-01T20:56:09.210Z,5.57
2022-11-01T20:58:41.942Z,4.80
2022-11-01T21:01:17.032Z,5.70
2022-11-01T21:03:44.380Z,5.20
2022-11-01T21:06:17.051Z,4.33
2022-11-01T21:08:47.256Z,6.10
2022-11-01T21:11:46.092Z,5.40
2022-11-01T21:14:21.502Z,5.20
2022-11-01T21:16:48.793Z,5.67
2022-11-01T21:19:23.635Z,5.50
2022-11-01T21:21:58.467Z,5.70
2022-11-01T21:24:34.242Z,5.20
2022-11-01T21:27:13.251Z,5.67
2022-11-01T21:29:50.379Z,5.57
2022-11-01T21:32:34.770Z,5.57
2022-11-01T21:35:20.546Z,4.90
2022-11-01T21:37:52.871Z,4.93
2022-11-01T21:40:27.061Z,5.00
2022-11-01T21:42:54.763Z,4.90
2022-11-01T21:45:32.314Z,5.23
2022-11-01T21:48:18.903Z,5.27
2022-11-01T21:50:45.700Z,4.90
2022-11-01T21:53:12.525Z,5.03
2022-11-01T21:55:39.297Z,5.50
2022-11-01T21:58:06.112Z,5.10
2022-11-01T22:00:32.918Z,5.40
2022-11-01T22:02:59.965Z,5.13
2022-11-01T22:05:26.756Z,4.93
2022-11-01T22:07:53.599Z,4.70
2022-11-01T22:10:20.395Z,5.03
2022-11-01T22:12:47.264Z,4.83
2022-11-01T22:15:14.229Z,4.40
2022-11-01T22:17:41.083Z,5.10
2022-11-01T22:20:08.322Z,4.73
2022-11-01T22:22:35.138Z,4.47
2022-11-01T22:25:01.947Z,4.80
2022-11-01T22:27:28.769Z,4.50
2022-11-01T22:29:55.553Z,4.70
2022-11-01T22:32:22.384Z,4.73
2022-11-01T22:34:49.188Z,5.10
2022-11-01T22:37:16.109Z,4.23
2022-11-01T22:39:43.346Z,4.83
2022-11-01T22:42:15.306Z,4.50
2022-11-01T22:44:46.662Z,4.37
2022-11-01T22:47:26.763Z,3.80
2022-11-01T22:49:55.587Z,4.90
2022-11-01T22:52:38.882Z,4.07
2022-11-01T22:55:14.115Z,3.67
2022-11-01T22:58:03.205Z,3.80
2022-11-01T23:00:44.352Z,4.57
2022-11-01T23:03:22.783Z,3.70
2022-11-01T23:05:52.544Z,3.70
2022-11-01T23:08:37.081Z,4.40
2022-11-01T23:11:04.626Z,4.07
2022-11-01T23:13:56.036Z,3.83
2022-11-01T23:16:23.184Z,4.30
2022-11-01T23:18:51.633Z,3.50
2022-11-01T23:21:19.370Z,4.37
2022-11-01T23:23:47.424Z,3.77
2022-11-01T23:26:16.590Z,4.00
2022-11-01T23:28:54.445Z,3.80
2022-11-01T23:31:23.493Z,4.07
2022-11-01T23:33:51.419Z,3.78
2022-11-01T23:36:28.800Z,3.77
2022-11-01T23:41:46.933Z,4.23
2022-11-01T23:44:19.566Z,4.03
2022-11-01T23:46:46.411Z,4.50
2022-11-01T23:49:20.802Z,3.70
2022-11-01T23:51:47.910Z,3.28
2022-11-01T23:54:24.434Z,3.97
2022-11-01T23:56:51.493Z,3.87
2022-11-01T23:59:18.330Z,3.27
